sensor_id;sensor_type;location;lat;lon;timestamp;P1;durP1;ratioP1;P2;durP2;ratioP2
15293;SDS011;74171;52.534;13.436;2023-12-07T00:01:27;24.73;;;17.43;;
15293;SDS011;74171;52.534;13.436;2023-12-07T00:03:55;26.20;;;16.50;;
15293;SDS011;74171;52.534;13.436;2023-12-07T00:06:25;27.40;;;17.07;;
15293;SDS011;74171;52.534;13.436;2023-12-07T00:08:53;24.00;;;16.43;;
15293;SDS011;74171;52.534;13.436;2023-12-07T00:11:29;23.50;;;16.07;;
15293;SDS011;74171;52.534;13.436;2023-12-07T00:14:11;22.53;;;16.07;;
15293;SDS011;74171;52.534;13.436;2023-12-07T00:16:39;23.33;;;15.77;;
15293;SDS011;74171;52.534;13.436;2023-12-07T00:19:08;21.50;;;15.10;;
15293;SDS011;74171;52.534;13.436;2023-12-07T00:21:37;23.23;;;16.10;;
15293;SDS011;74171;52.534;13.436;2023-12-07T00:24:07;23.63;;;16.73;;
15293;SDS011;74171;52.534;13.436;2023-12-07T00:26:35;21.23;;;15.17;;
15293;SDS011;74171;52.534;13.436;2023-12-07T00:29:06;22.57;;;16.10;;
15293;SDS011;74171;52.534;13.436;2023-12-07T00:31:42;20.03;;;15.53;;
15293;SDS011;74171;52.534;13.436;2023-12-07T00:34:51;23.30;;;16.13;;
15293;SDS011;74171;52.534;13.436;2023-12-07T00:37:22;24.17;;;16.33;;
15293;SDS011;74171;52.534;13.436;2023-12-07T00:39:50;22.50;;;16.03;;
15293;SDS011;74171;52.534;13.436;2023-12-07T00:42:24;22.00;;;15.30;;
15293;SDS011;74171;52.534;13.436;2023-12-07T00:44:53;22.80;;;15.47;;
15293;SDS011;74171;52.534;13.436;2023-12-07T00:47:22;23.23;;;16.60;;
15293;SDS011;74171;52.534;13.436;2023-12-07T00:49:50;21.20;;;14.20;;
15293;SDS011;74171;52.534;13.436;2023-12-07T00:52:20;23.70;;;16.13;;
15293;SDS011;74171;52.534;13.436;2023-12-07T00:54:50;23.60;;;17.10;;
15293;SDS011;74171;52.534;13.436;2023-12-07T00:57:18;22.80;;;16.10;;
15293;SDS011;74171;52.534;13.436;2023-12-07T00:59:47;22.90;;;15.20;;
15293;SDS011;74171;52.534;13.436;2023-12-07T01:02:15;22.00;;;15.47;;
15293;SDS011;74171;52.534;13.436;2023-12-07T01:04:44;26.50;;;17.23;;
15293;SDS011;74171;52.534;13.436;2023-12-07T01:07:14;22.53;;;15.23;;
15293;SDS011;74171;52.534;13.436;2023-12-07T01:09:43;24.07;;;16.57;;
15293;SDS011;74171;52.534;13.436;2023-12-07T01:12:14;22.13;;;16.03;;
15293;SDS011;74171;52.534;13.436;2023-12-07T01:14:42;24.27;;;16.13;;
15293;SDS011;74171;52.534;13.436;2023-12-07T01:17:17;23.90;;;15.67;;
15293;SDS011;74171;52.534;13.436;2023-12-07T01:19:46;24.53;;;15.77;;
15293;SDS011;74171;52.534;13.436;2023-12-07T01:22:14;27.83;;;17.30;;
15293;SDS011;74171;52.534;13.436;2023-12-07T01:25:01;25.10;;;16.33;;
15293;SDS011;74171;52.534;13.436;2023-12-07T01:27:32;21.90;;;15.10;;
15293;SDS011;74171;52.534;13.436;2023-12-07T01:30:01;23.93;;;16.47;;
15293;SDS011;74171;52.534;13.436;2023-12-07T01:32:32;24.10;;;16.47;;
15293;SDS011;74171;52.534;13.436;2023-12-07T01:35:01;22.97;;;16.13;;
15293;SDS011;74171;52.534;13.436;2023-12-07T01:37:29;24.73;;;17.13;;
15293;SDS011;74171;52.534;13.436;2023-12-07T01:39:58;24.37;;;15.90;;
15293;SDS011;74171;52.534;13.436;2023-12-07T01:42:27;22.03;;;15.63;;
15293;SDS011;74171;52.534;13.436;2023-12-07T01:44:58;23.47;;;16.20;;
15293;SDS011;74171;52.534;13.436;2023-12-07T01:47:28;26.33;;;16.93;;
15293;SDS011;74171;52.534;13.436;2023-12-07T01:49:56;24.43;;;16.10;;
15293;SDS011;74171;52.534;13.436;2023-12-07T01:52:25;23.63;;;16.80;;
15293;SDS011;74171;52.534;13.436;2023-12-07T01:54:55;22.13;;;16.00;;
15293;SDS011;74171;52.534;13.436;2023-12-07T01:57:23;24.70;;;16.50;;
15293;SDS011;74171;52.534;13.436;2023-12-07T01:59:51;25.40;;;16.60;;
15293;SDS011;74171;52.534;13.436;2023-12-07T02:02:21;22.63;;;15.50;;
15293;SDS011;74171;52.534;13.436;2023-12-07T02:04:50;26.50;;;16.53;;
15293;SDS011;74171;52.534;13.436;2023-12-07T02:07:18;24.50;;;16.07;;
15293;SDS011;74171;52.534;13.436;2023-12-07T02:09:47;21.20;;;15.77;;
15293;SDS011;74171;52.534;13.436;2023-12-07T02:12:16;25.10;;;17.50;;
15293;SDS011;74171;52.534;13.436;2023-12-07T02:14:46;25.03;;;16.90;;
15293;SDS011;74171;52.534;13.436;2023-12-07T02:17:15;24.47;;;17.03;;
15293;SDS011;74171;52.534;13.436;2023-12-07T02:22:35;26.87;;;17.87;;
15293;SDS011;74171;52.534;13.436;2023-12-07T02:25:06;25.60;;;17.23;;
15293;SDS011;74171;52.534;13.436;2023-12-07T02:27:38;40.73;;;25.03;;
15293;SDS011;74171;52.534;13.436;2023-12-07T02:30:16;34.70;;;23.07;;
15293;SDS011;74171;52.534;13.436;2023-12-07T02:32:47;30.73;;;20.07;;
15293;SDS011;74171;52.534;13.436;2023-12-07T02:35:17;27.80;;;19.50;;
15293;SDS011;74171;52.534;13.436;2023-12-07T02:37:48;22.77;;;16.13;;
15293;SDS011;74171;52.534;13.436;2023-12-07T02:40:16;24.83;;;16.63;;
15293;SDS011;74171;52.534;13.436;2023-12-07T02:42:48;28.80;;;16.10;;
15293;SDS011;74171;52.534;13.436;2023-12-07T02:45:31;23.93;;;17.07;;
15293;SDS011;74171;52.534;13.436;2023-12-07T02:48:01;27.23;;;16.40;;
15293;SDS011;74171;52.534;13.436;2023-12-07T02:50:29;24.93;;;16.07;;
15293;SDS011;74171;52.534;13.436;2023-12-07T02:53:00;25.57;;;17.53;;
15293;SDS011;74171;52.534;13.436;2023-12-07T02:55:28;25.27;;;17.10;;
15293;SDS011;74171;52.534;13.436;2023-12-07T02:57:59;25.93;;;17.47;;
15293;SDS011;74171;52.534;13.436;2023-12-07T03:00:27;23.87;;;17.03;;
15293;SDS011;74171;52.534;13.436;2023-12-07T03:02:59;24.83;;;17.13;;
15293;SDS011;74171;52.534;13.436;2023-12-07T03:05:27;28.43;;;17.10;;
15293;SDS011;74171;52.534;13.436;2023-12-07T03:07:56;26.00;;;15.80;;
15293;SDS011;74171;52.534;13.436;2023-12-07T03:10:27;27.30;;;16.43;;
15293;SDS011;74171;52.534;13.436;2023-12-07T03:12:57;29.00;;;17.10;;
15293;SDS011;74171;52.534;13.436;2023-12-07T03:15:27;28.13;;;16.80;;
15293;SDS011;74171;52.534;13.436;2023-12-07T03:17:55;28.97;;;17.47;;
15293;SDS011;74171;52.534;13.436;2023-12-07T03:20:24;31.43;;;17.93;;
15293;SDS011;74171;52.534;13.436;2023-12-07T03:23:01;28.77;;;17.27;;
15293;SDS011;74171;52.534;13.436;2023-12-07T03:25:29;26.20;;;16.80;;
15293;SDS011;74171;52.534;13.436;2023-12-07T03:27:58;24.23;;;16.53;;
15293;SDS011;74171;52.534;13.436;2023-12-07T03:30:36;23.27;;;16.03;;
15293;SDS011;74171;52.534;13.436;2023-12-07T03:33:11;25.77;;;17.07;;
15293;SDS011;74171;52.534;13.436;2023-12-07T03:35:40;28.63;;;17.13;;
15293;SDS011;74171;52.534;13.436;2023-12-07T03:38:08;24.40;;;16.87;;
15293;SDS011;74171;52.534;13.436;2023-12-07T03:40:37;24.83;;;17.10;;
15293;SDS011;74171;52.534;13.436;2023-12-07T03:43:04;25.17;;;16.53;;
15293;SDS011;74171;52.534;13.436;2023-12-07T03:45:39;25.80;;;17.93;;
15293;SDS011;74171;52.534;13.436;2023-12-07T03:48:07;24.80;;;17.57;;
15293;SDS011;74171;52.534;13.436;2023-12-07T03:50:39;25.07;;;17.53;;
15293;SDS011;74171;52.534;13.436;2023-12-07T03:53:09;26.17;;;16.87;;
15293;SDS011;74171;52.534;13.436;2023-12-07T03:55:41;24.67;;;17.60;;
15293;SDS011;74171;52.534;13.436;2023-12-07T03:58:12;28.10;;;17.40;;
15293;SDS011;74171;52.534;13.436;2023-12-07T04:00:43;25.67;;;17.07;;
15293;SDS011;74171;52.534;13.436;2023-12-07T04:03:16;27.73;;;17.93;;
15293;SDS011;74171;52.534;13.436;2023-12-07T04:05:44;26.30;;;17.40;;
15293;SDS011;74171;52.534;13.436;2023-12-07T04:08:14;29.80;;;18.63;;
15293;SDS011;74171;52.534;13.436;2023-12-07T04:10:45;29.67;;;18.27;;
15293;SDS011;74171;52.534;13.436;2023-12-07T04:13:13;32.97;;;18.97;;
15293;SDS011;74171;52.534;13.436;2023-12-07T04:15:48;35.80;;;19.87;;
15293;SDS011;74171;52.534;13.436;2023-12-07T04:18:17;31.97;;;20.70;;
15293;SDS011;74171;52.534;13.436;2023-12-07T04:20:46;33.87;;;20.87;;
15293;SDS011;74171;52.534;13.436;2023-12-07T04:23:14;32.17;;;19.67;;
15293;SDS011;74171;52.534;13.436;2023-12-07T04:25:44;33.27;;;19.07;;
15293;SDS011;74171;52.534;13.436;2023-12-07T04:28:13;33.90;;;19.67;;
15293;SDS011;74171;52.534;13.436;2023-12-07T04:30:41;31.07;;;18.20;;
15293;SDS011;74171;52.534;13.436;2023-12-07T04:33:11;30.37;;;17.87;;
15293;SDS011;74171;52.534;13.436;2023-12-07T04:35:40;32.20;;;19.70;;
15293;SDS011;74171;52.534;13.436;2023-12-07T04:38:09;31.23;;;19.23;;
15293;SDS011;74171;52.534;13.436;2023-12-07T04:40:39;33.00;;;19.57;;
15293;SDS011;74171;52.534;13.436;2023-12-07T04:43:09;32.13;;;19.40;;
15293;SDS011;74171;52.534;13.436;2023-12-07T04:45:37;30.57;;;19.30;;
15293;SDS011;74171;52.534;13.436;2023-12-07T04:48:06;33.07;;;19.57;;
15293;SDS011;74171;52.534;13.436;2023-12-07T04:50:36;33.33;;;20.07;;
15293;SDS011;74171;52.534;13.436;2023-12-07T04:53:18;28.77;;;17.53;;
15293;SDS011;74171;52.534;13.436;2023-12-07T04:55:47;31.10;;;18.63;;
15293;SDS011;74171;52.534;13.436;2023-12-07T04:58:22;32.93;;;18.63;;
15293;SDS011;74171;52.534;13.436;2023-12-07T05:00:51;31.27;;;19.07;;
15293;SDS011;74171;52.534;13.436;2023-12-07T05:03:20;31.80;;;18.57;;
15293;SDS011;74171;52.534;13.436;2023-12-07T05:05:50;30.17;;;17.80;;
15293;SDS011;74171;52.534;13.436;2023-12-07T05:08:24;34.60;;;20.20;;
15293;SDS011;74171;52.534;13.436;2023-12-07T05:11:08;31.17;;;19.40;;
15293;SDS011;74171;52.534;13.436;2023-12-07T05:13:37;34.13;;;19.80;;
15293;SDS011;74171;52.534;13.436;2023-12-07T05:16:08;33.27;;;19.37;;
15293;SDS011;74171;52.534;13.436;2023-12-07T05:18:37;33.50;;;20.73;;
15293;SDS011;74171;52.534;13.436;2023-12-07T05:21:12;34.53;;;20.40;;
15293;SDS011;74171;52.534;13.436;2023-12-07T05:24:01;30.13;;;17.63;;
15293;SDS011;74171;52.534;13.436;2023-12-07T05:26:42;34.73;;;20.00;;
15293;SDS011;74171;52.534;13.436;2023-12-07T05:29:29;32.00;;;19.10;;
15293;SDS011;74171;52.534;13.436;2023-12-07T05:32:22;31.17;;;19.47;;
15293;SDS011;74171;52.534;13.436;2023-12-07T05:35:09;31.33;;;18.60;;
15293;SDS011;74171;52.534;13.436;2023-12-07T05:37:47;35.77;;;20.13;;
15293;SDS011;74171;52.534;13.436;2023-12-07T05:40:29;35.27;;;20.30;;
15293;SDS011;74171;52.534;13.436;2023-12-07T05:43:06;33.00;;;18.43;;
15293;SDS011;74171;52.534;13.436;2023-12-07T05:45:35;27.67;;;17.53;;
15293;SDS011;74171;52.534;13.436;2023-12-07T05:48:35;34.97;;;19.40;;
15293;SDS011;74171;52.534;13.436;2023-12-07T05:51:11;32.60;;;19.23;;
15293;SDS011;74171;52.534;13.436;2023-12-07T05:56:45;34.10;;;19.43;;
15293;SDS011;74171;52.534;13.436;2023-12-07T05:59:14;31.07;;;18.20;;
15293;SDS011;74171;52.534;13.436;2023-12-07T06:01:44;31.33;;;17.97;;
15293;SDS011;74171;52.534;13.436;2023-12-07T06:04:26;30.83;;;18.03;;
15293;SDS011;74171;52.534;13.436;2023-12-07T06:07:03;31.60;;;17.87;;
15293;SDS011;74171;52.534;13.436;2023-12-07T06:09:34;32.57;;;18.03;;
15293;SDS011;74171;52.534;13.436;2023-12-07T06:12:06;30.53;;;17.27;;
15293;SDS011;74171;52.534;13.436;2023-12-07T06:14:34;33.60;;;19.23;;
15293;SDS011;74171;52.534;13.436;2023-12-07T06:17:11;36.23;;;18.63;;
15293;SDS011;74171;52.534;13.436;2023-12-07T06:19:47;32.97;;;19.33;;
15293;SDS011;74171;52.534;13.436;2023-12-07T06:22:17;32.97;;;20.37;;
15293;SDS011;74171;52.534;13.436;2023-12-07T06:24:47;30.40;;;18.87;;
15293;SDS011;74171;52.534;13.436;2023-12-07T06:27:38;32.90;;;18.47;;
15293;SDS011;74171;52.534;13.436;2023-12-07T06:30:23;34.97;;;19.43;;
15293;SDS011;74171;52.534;13.436;2023-12-07T06:32:56;32.77;;;20.40;;
15293;SDS011;74171;52.534;13.436;2023-12-07T06:35:28;31.40;;;18.50;;
15293;SDS011;74171;52.534;13.436;2023-12-07T06:38:05;32.40;;;19.60;;
15293;SDS011;74171;52.534;13.436;2023-12-07T06:40:49;36.80;;;20.37;;
15293;SDS011;74171;52.534;13.436;2023-12-07T06:43:24;37.63;;;20.60;;
15293;SDS011;74171;52.534;13.436;2023-12-07T06:45:54;33.63;;;20.20;;
15293;SDS011;74171;52.534;13.436;2023-12-07T06:48:23;31.20;;;19.10;;
15293;SDS011;74171;52.534;13.436;2023-12-07T06:50:55;31.70;;;18.17;;
15293;SDS011;74171;52.534;13.436;2023-12-07T06:53:26;33.23;;;18.80;;
15293;SDS011;74171;52.534;13.436;2023-12-07T06:55:54;32.77;;;18.10;;
15293;SDS011;74171;52.534;13.436;2023-12-07T06:58:28;29.27;;;16.87;;
15293;SDS011;74171;52.534;13.436;2023-12-07T07:00:57;28.43;;;16.37;;
15293;SDS011;74171;52.534;13.436;2023-12-07T07:06:44;27.83;;;16.67;;
15293;SDS011;74171;52.534;13.436;2023-12-07T07:09:12;32.47;;;17.97;;
15293;SDS011;74171;52.534;13.436;2023-12-07T07:11:42;34.33;;;19.17;;
15293;SDS011;74171;52.534;13.436;2023-12-07T07:14:18;33.33;;;18.07;;
15293;SDS011;74171;52.534;13.436;2023-12-07T07:16:47;31.53;;;17.63;;
15293;SDS011;74171;52.534;13.436;2023-12-07T07:22:42;37.23;;;19.17;;
15293;SDS011;74171;52.534;13.436;2023-12-07T07:26:08;34.67;;;20.00;;
15293;SDS011;74171;52.534;13.436;2023-12-07T08:20:53;30.53;;;16.67;;
15293;SDS011;74171;52.534;13.436;2023-12-07T08:26:51;28.57;;;16.40;;
15293;SDS011;74171;52.534;13.436;2023-12-07T08:29:37;28.27;;;16.73;;
15293;SDS011;74171;52.534;13.436;2023-12-07T08:32:27;31.60;;;17.80;;
15293;SDS011;74171;52.534;13.436;2023-12-07T08:35:25;31.70;;;18.07;;
15293;SDS011;74171;52.534;13.436;2023-12-07T09:04:24;27.67;;;15.53;;
15293;SDS011;74171;52.534;13.436;2023-12-07T09:07:19;28.13;;;16.90;;
15293;SDS011;74171;52.534;13.436;2023-12-07T09:09:56;26.43;;;16.60;;
15293;SDS011;74171;52.534;13.436;2023-12-07T09:12:57;27.57;;;16.10;;
15293;SDS011;74171;52.534;13.436;2023-12-07T09:15:48;26.07;;;16.20;;
15293;SDS011;74171;52.534;13.436;2023-12-07T09:18:40;26.83;;;15.77;;
15293;SDS011;74171;52.534;13.436;2023-12-07T09:21:46;25.23;;;15.03;;
15293;SDS011;74171;52.534;13.436;2023-12-07T09:31:14;34.33;;;16.03;;
15293;SDS011;74171;52.534;13.436;2023-12-07T10:06:03;27.00;;;15.73;;
15293;SDS011;74171;52.534;13.436;2023-12-07T10:08:43;28.87;;;16.50;;
15293;SDS011;74171;52.534;13.436;2023-12-07T10:11:14;26.43;;;15.40;;
15293;SDS011;74171;52.534;13.436;2023-12-07T10:13:52;25.40;;;14.10;;
15293;SDS011;74171;52.534;13.436;2023-12-07T10:16:25;23.50;;;14.67;;
15293;SDS011;74171;52.534;13.436;2023-12-07T10:19:23;27.07;;;15.10;;
15293;SDS011;74171;52.534;13.436;2023-12-07T10:21:59;23.83;;;13.67;;
15293;SDS011;74171;52.534;13.436;2023-12-07T10:24:29;21.83;;;14.07;;
15293;SDS011;74171;52.534;13.436;2023-12-07T10:27:02;23.90;;;14.37;;
15293;SDS011;74171;52.534;13.436;2023-12-07T10:29:37;28.67;;;14.10;;
15293;SDS011;74171;52.534;13.436;2023-12-07T10:32:22;23.57;;;14.03;;
15293;SDS011;74171;52.534;13.436;2023-12-07T10:34:53;26.23;;;14.87;;
15293;SDS011;74171;52.534;13.436;2023-12-07T10:47:00;26.00;;;15.43;;
15293;SDS011;74171;52.534;13.436;2023-12-07T10:49:48;29.57;;;15.97;;
15293;SDS011;74171;52.534;13.436;2023-12-07T10:52:23;29.50;;;16.37;;
15293;SDS011;74171;52.534;13.436;2023-12-07T10:55:02;25.47;;;14.67;;
15293;SDS011;74171;52.534;13.436;2023-12-07T10:57:52;28.13;;;16.33;;
15293;SDS011;74171;52.534;13.436;2023-12-07T11:10:20;30.17;;;17.67;;
15293;SDS011;74171;52.534;13.436;2023-12-07T11:13:08;27.67;;;16.07;;
15293;SDS011;74171;52.534;13.436;2023-12-07T11:22:37;29.13;;;17.00;;
15293;SDS011;74171;52.534;13.436;2023-12-07T11:32:22;29.27;;;17.80;;
15293;SDS011;74171;52.534;13.436;2023-12-07T11:35:03;27.43;;;16.43;;
15293;SDS011;74171;52.534;13.436;2023-12-07T11:38:06;26.43;;;16.47;;
15293;SDS011;74171;52.534;13.436;2023-12-07T11:41:14;28.23;;;17.10;;
15293;SDS011;74171;52.534;13.436;2023-12-07T11:43:59;29.53;;;17.20;;
15293;SDS011;74171;52.534;13.436;2023-12-07T11:46:56;24.47;;;13.87;;
15293;SDS011;74171;52.534;13.436;2023-12-07T11:59:25;31.13;;;20.33;;
15293;SDS011;74171;52.534;13.436;2023-12-07T12:01:59;30.13;;;18.47;;
15293;SDS011;74171;52.534;13.436;2023-12-07T12:04:29;27.63;;;16.80;;
15293;SDS011;74171;52.534;13.436;2023-12-07T12:06:58;26.33;;;14.97;;
15293;SDS011;74171;52.534;13.436;2023-12-07T12:09:27;27.27;;;16.37;;
15293;SDS011;74171;52.534;13.436;2023-12-07T12:11:59;31.03;;;18.07;;
15293;SDS011;74171;52.534;13.436;2023-12-07T12:14:31;28.87;;;17.43;;
15293;SDS011;74171;52.534;13.436;2023-12-07T12:17:02;32.17;;;16.90;;
15293;SDS011;74171;52.534;13.436;2023-12-07T12:19:34;32.10;;;18.80;;
15293;SDS011;74171;52.534;13.436;2023-12-07T12:22:04;30.03;;;17.97;;
15293;SDS011;74171;52.534;13.436;2023-12-07T12:27:31;29.07;;;17.37;;
15293;SDS011;74171;52.534;13.436;2023-12-07T12:33:31;31.23;;;18.03;;
15293;SDS011;74171;52.534;13.436;2023-12-07T12:36:04;27.57;;;17.30;;
15293;SDS011;74171;52.534;13.436;2023-12-07T12:38:59;29.00;;;17.60;;
15293;SDS011;74171;52.534;13.436;2023-12-07T12:41:29;29.53;;;18.23;;
15293;SDS011;74171;52.534;13.436;2023-12-07T12:44:00;28.73;;;18.50;;
15293;SDS011;74171;52.534;13.436;2023-12-07T12:46:56;29.53;;;18.00;;
15293;SDS011;74171;52.534;13.436;2023-12-07T12:49:35;33.47;;;19.37;;
15293;SDS011;74171;52.534;13.436;2023-12-07T12:56:07;31.40;;;18.37;;
15293;SDS011;74171;52.534;13.436;2023-12-07T12:59:23;31.70;;;18.63;;
15293;SDS011;74171;52.534;13.436;2023-12-07T13:02:29;36.27;;;20.70;;
15293;SDS011;74171;52.534;13.436;2023-12-07T13:09:06;34.87;;;20.60;;
15293;SDS011;74171;52.534;13.436;2023-12-07T13:11:55;38.07;;;21.03;;
15293;SDS011;74171;52.534;13.436;2023-12-07T13:14:54;34.27;;;20.93;;
15293;SDS011;74171;52.534;13.436;2023-12-07T13:17:41;35.53;;;21.40;;
15293;SDS011;74171;52.534;13.436;2023-12-07T13:24:20;45.07;;;28.53;;
15293;SDS011;74171;52.534;13.436;2023-12-07T13:27:02;38.10;;;22.73;;
15293;SDS011;74171;52.534;13.436;2023-12-07T13:29:59;37.63;;;22.03;;
15293;SDS011;74171;52.534;13.436;2023-12-07T13:32:57;41.77;;;23.63;;
15293;SDS011;74171;52.534;13.436;2023-12-07T13:42:37;40.00;;;22.90;;
15293;SDS011;74171;52.534;13.436;2023-12-07T13:45:14;42.03;;;24.60;;
15293;SDS011;74171;52.534;13.436;2023-12-07T13:51:27;49.33;;;25.77;;
15293;SDS011;74171;52.534;13.436;2023-12-07T13:54:26;45.10;;;24.70;;
15293;SDS011;74171;52.534;13.436;2023-12-07T13:57:05;45.90;;;26.07;;
15293;SDS011;74171;52.534;13.436;2023-12-07T14:38:29;47.30;;;26.33;;
15293;SDS011;74171;52.534;13.436;2023-12-07T14:41:03;52.37;;;26.53;;
15293;SDS011;74171;52.534;13.436;2023-12-07T14:43:38;52.00;;;27.37;;
15293;SDS011;74171;52.534;13.436;2023-12-07T14:46:09;52.00;;;27.60;;
15293;SDS011;74171;52.534;13.436;2023-12-07T14:48:38;52.30;;;27.53;;
15293;SDS011;74171;52.534;13.436;2023-12-07T14:51:08;51.70;;;29.60;;
15293;SDS011;74171;52.534;13.436;2023-12-07T14:53:40;53.73;;;29.33;;
15293;SDS011;74171;52.534;13.436;2023-12-07T14:56:23;50.13;;;26.77;;
15293;SDS011;74171;52.534;13.436;2023-12-07T14:58:54;54.67;;;28.20;;
15293;SDS011;74171;52.534;13.436;2023-12-07T15:01:27;52.87;;;28.03;;
15293;SDS011;74171;52.534;13.436;2023-12-07T15:07:41;48.10;;;26.10;;
15293;SDS011;74171;52.534;13.436;2023-12-07T15:10:21;51.33;;;26.40;;
15293;SDS011;74171;52.534;13.436;2023-12-07T15:12:53;54.47;;;26.20;;
15293;SDS011;74171;52.534;13.436;2023-12-07T15:15:23;52.87;;;28.87;;
15293;SDS011;74171;52.534;13.436;2023-12-07T15:17:56;54.40;;;27.67;;
15293;SDS011;74171;52.534;13.436;2023-12-07T15:20:41;44.73;;;25.43;;
15293;SDS011;74171;52.534;13.436;2023-12-07T15:23:10;45.67;;;25.17;;
15293;SDS011;74171;52.534;13.436;2023-12-07T15:26:03;45.00;;;24.30;;
15293;SDS011;74171;52.534;13.436;2023-12-07T15:28:32;46.23;;;25.00;;
15293;SDS011;74171;52.534;13.436;2023-12-07T15:31:01;46.70;;;26.03;;
15293;SDS011;74171;52.534;13.436;2023-12-07T15:33:30;45.43;;;23.87;;
15293;SDS011;74171;52.534;13.436;2023-12-07T15:36:05;44.93;;;23.50;;
15293;SDS011;74171;52.534;13.436;2023-12-07T16:17:31;58.27;;;29.37;;
15293;SDS011;74171;52.534;13.436;2023-12-07T16:20:18;62.60;;;30.87;;
15293;SDS011;74171;52.534;13.436;2023-12-07T16:23:03;63.73;;;32.40;;
15293;SDS011;74171;52.534;13.436;2023-12-07T16:25:50;64.67;;;31.47;;
15293;SDS011;74171;52.534;13.436;2023-12-07T16:28:34;76.10;;;33.73;;
15293;SDS011;74171;52.534;13.436;2023-12-07T16:31:51;73.77;;;33.47;;
15293;SDS011;74171;52.534;13.436;2023-12-07T17:05:58;74.80;;;33.73;;
15293;SDS011;74171;52.534;13.436;2023-12-07T17:08:33;68.50;;;30.97;;
15293;SDS011;74171;52.534;13.436;2023-12-07T17:14:23;77.53;;;30.63;;
15293;SDS011;74171;52.534;13.436;2023-12-07T17:20:08;69.47;;;30.17;;
15293;SDS011;74171;52.534;13.436;2023-12-07T17:22:48;67.90;;;29.67;;
15293;SDS011;74171;52.534;13.436;2023-12-07T17:25:39;65.73;;;29.70;;
15293;SDS011;74171;52.534;13.436;2023-12-07T17:28:09;70.93;;;31.43;;
15293;SDS011;74171;52.534;13.436;2023-12-07T17:30:42;71.93;;;29.20;;
15293;SDS011;74171;52.534;13.436;2023-12-07T17:36:55;70.90;;;30.47;;
15293;SDS011;74171;52.534;13.436;2023-12-07T17:39:43;62.83;;;30.40;;
15293;SDS011;74171;52.534;13.436;2023-12-07T17:42:26;68.90;;;29.07;;
15293;SDS011;74171;52.534;13.436;2023-12-07T17:45:13;65.40;;;27.87;;
15293;SDS011;74171;52.534;13.436;2023-12-07T17:48:00;58.70;;;26.60;;
15293;SDS011;74171;52.534;13.436;2023-12-07T17:50:56;64.10;;;26.30;;
15293;SDS011;74171;52.534;13.436;2023-12-07T17:53:34;61.63;;;28.07;;
15293;SDS011;74171;52.534;13.436;2023-12-07T18:02:39;62.83;;;26.77;;
15293;SDS011;74171;52.534;13.436;2023-12-07T18:05:48;64.37;;;26.00;;
15293;SDS011;74171;52.534;13.436;2023-12-07T18:08:39;56.67;;;25.33;;
15293;SDS011;74171;52.534;13.436;2023-12-07T18:14:41;70.07;;;29.97;;
15293;SDS011;74171;52.534;13.436;2023-12-07T18:21:24;51.97;;;24.47;;
15293;SDS011;74171;52.534;13.436;2023-12-07T18:24:18;51.67;;;25.03;;
15293;SDS011;74171;52.534;13.436;2023-12-07T18:30:47;64.37;;;26.43;;
15293;SDS011;74171;52.534;13.436;2023-12-07T18:43:30;50.40;;;23.40;;
15293;SDS011;74171;52.534;13.436;2023-12-07T18:46:10;58.40;;;23.93;;
15293;SDS011;74171;52.534;13.436;2023-12-07T18:52:07;44.83;;;21.80;;
15293;SDS011;74171;52.534;13.436;2023-12-07T18:54:41;48.27;;;22.03;;
15293;SDS011;74171;52.534;13.436;2023-12-07T18:57:19;46.57;;;21.40;;
15293;SDS011;74171;52.534;13.436;2023-12-07T19:03:09;41.37;;;20.97;;
15293;SDS011;74171;52.534;13.436;2023-12-07T19:06:02;46.80;;;22.13;;
15293;SDS011;74171;52.534;13.436;2023-12-07T19:12:27;49.03;;;22.27;;
15293;SDS011;74171;52.534;13.436;2023-12-07T19:15:18;47.60;;;21.47;;
15293;SDS011;74171;52.534;13.436;2023-12-07T19:17:54;47.33;;;23.37;;
15293;SDS011;74171;52.534;13.436;2023-12-07T19:20:41;43.97;;;22.67;;
15293;SDS011;74171;52.534;13.436;2023-12-07T19:26:08;54.43;;;24.93;;
15293;SDS011;74171;52.534;13.436;2023-12-07T19:29:07;52.17;;;23.70;;
15293;SDS011;74171;52.534;13.436;2023-12-07T19:32:05;53.47;;;25.60;;
15293;SDS011;74171;52.534;13.436;2023-12-07T19:44:46;51.43;;;25.50;;
15293;SDS011;74171;52.534;13.436;2023-12-07T19:47:34;51.17;;;24.90;;
15293;SDS011;74171;52.534;13.436;2023-12-07T19:50:09;55.20;;;24.57;;
15293;SDS011;74171;52.534;13.436;2023-12-07T19:52:40;62.57;;;26.80;;
15293;SDS011;74171;52.534;13.436;2023-12-07T19:55:11;54.57;;;26.07;;
15293;SDS011;74171;52.534;13.436;2023-12-07T19:57:56;55.10;;;25.47;;
15293;SDS011;74171;52.534;13.436;2023-12-07T20:00:31;59.40;;;24.93;;
15293;SDS011;74171;52.534;13.436;2023-12-07T20:03:04;57.87;;;25.20;;
15293;SDS011;74171;52.534;13.436;2023-12-07T20:05:35;64.13;;;26.43;;
15293;SDS011;74171;52.534;13.436;2023-12-07T20:08:05;55.33;;;26.87;;
15293;SDS011;74171;52.534;13.436;2023-12-07T20:10:36;65.20;;;25.53;;
15293;SDS011;74171;52.534;13.436;2023-12-07T20:13:07;56.40;;;25.87;;
15293;SDS011;74171;52.534;13.436;2023-12-07T20:25:30;62.63;;;26.50;;
15293;SDS011;74171;52.534;13.436;2023-12-07T20:28:28;60.83;;;26.20;;
15293;SDS011;74171;52.534;13.436;2023-12-07T20:34:21;60.33;;;25.83;;
15293;SDS011;74171;52.534;13.436;2023-12-07T20:37:30;64.43;;;26.93;;
15293;SDS011;74171;52.534;13.436;2023-12-07T21:14:03;73.63;;;26.77;;
15293;SDS011;74171;52.534;13.436;2023-12-07T21:23:10;77.63;;;26.97;;
15293;SDS011;74171;52.534;13.436;2023-12-07T21:25:47;75.67;;;27.93;;
15293;SDS011;74171;52.534;13.436;2023-12-07T21:32:06;63.23;;;24.80;;
15293;SDS011;74171;52.534;13.436;2023-12-07T21:34:37;65.53;;;26.33;;
15293;SDS011;74171;52.534;13.436;2023-12-07T21:37:44;61.53;;;25.50;;
15293;SDS011;74171;52.534;13.436;2023-12-07T21:40:41;69.10;;;25.47;;
15293;SDS011;74171;52.534;13.436;2023-12-07T21:43:41;67.03;;;24.97;;
15293;SDS011;74171;52.534;13.436;2023-12-07T22:36:48;61.20;;;25.13;;
15293;SDS011;74171;52.534;13.436;2023-12-07T22:39:26;62.03;;;24.70;;
15293;SDS011;74171;52.534;13.436;2023-12-07T22:42:25;71.97;;;25.87;;
15293;SDS011;74171;52.534;13.436;2023-12-07T22:45:14;59.63;;;24.10;;
15293;SDS011;74171;52.534;13.436;2023-12-07T22:48:04;72.73;;;23.97;;
15293;SDS011;74171;52.534;13.436;2023-12-07T22:50:45;61.80;;;23.13;;
15293;SDS011;74171;52.534;13.436;2023-12-07T22:56:54;60.57;;;23.07;;
15293;SDS011;74171;52.534;13.436;2023-12-07T22:59:44;62.27;;;24.87;;
15293;SDS011;74171;52.534;13.436;2023-12-07T23:02:31;67.50;;;24.27;;
15293;SDS011;74171;52.534;13.436;2023-12-07T23:05:09;71.67;;;24.43;;
15293;SDS011;74171;52.534;13.436;2023-12-07T23:08:00;67.20;;;22.57;;
15293;SDS011;74171;52.534;13.436;2023-12-07T23:11:30;62.33;;;23.23;;
15293;SDS011;74171;52.534;13.436;2023-12-07T23:14:28;63.17;;;25.23;;
15293;SDS011;74171;52.534;13.436;2023-12-07T23:17:05;61.13;;;23.83;;